sensor_id;sensor_type;location;lat;lon;timestamp;temperature;humidity
42683;DHT22;28293;50.930;3.464;2022-12-17T00:01:33;-3272.80;89.70
42683;DHT22;28293;50.930;3.464;2022-12-17T00:04:18;-3272.80;89.70
42683;DHT22;28293;50.930;3.464;2022-12-17T00:07:02;-3272.80;89.70
42683;DHT22;28293;50.930;3.464;2022-12-17T00:09:46;-3272.80;89.80
42683;DHT22;28293;50.930;3.464;2022-12-17T00:12:31;-3272.70;89.80
42683;DHT22;28293;50.930;3.464;2022-12-17T00:15:17;-3272.70;89.80
42683;DHT22;28293;50.930;3.464;2022-12-17T00:18:07;-3272.70;89.80
42683;DHT22;28293;50.930;3.464;2022-12-17T00:20:59;-3272.70;89.80
42683;DHT22;28293;50.930;3.464;2022-12-17T00:23:44;-3272.70;89.80
42683;DHT22;28293;50.930;3.464;2022-12-17T00:26:31;-3272.70;89.90
42683;DHT22;28293;50.930;3.464;2022-12-17T00:29:15;-3272.80;90.00
42683;DHT22;28293;50.930;3.464;2022-12-17T00:32:00;-3272.80;89.90
42683;DHT22;28293;50.930;3.464;2022-12-17T00:34:44;-3272.70;89.90
42683;DHT22;28293;50.930;3.464;2022-12-17T00:37:29;-3272.70;89.90
42683;DHT22;28293;50.930;3.464;2022-12-17T00:40:14;-3272.70;90.00
42683;DHT22;28293;50.930;3.464;2022-12-17T00:43:08;-3272.80;90.00
42683;DHT22;28293;50.930;3.464;2022-12-17T00:45:53;-3272.70;90.00
42683;DHT22;28293;50.930;3.464;2022-12-17T00:48:38;-3272.80;90.20
42683;DHT22;28293;50.930;3.464;2022-12-17T00:51:22;-3272.70;90.10
42683;DHT22;28293;50.930;3.464;2022-12-17T00:54:07;-3272.70;90.10
42683;DHT22;28293;50.930;3.464;2022-12-17T00:56:51;-3272.60;90.00
42683;DHT22;28293;50.930;3.464;2022-12-17T00:59:36;-3272.60;90.10
42683;DHT22;28293;50.930;3.464;2022-12-17T01:02:21;-3272.60;90.10
42683;DHT22;28293;50.930;3.464;2022-12-17T01:05:08;-3272.60;90.20
42683;DHT22;28293;50.930;3.464;2022-12-17T01:07:52;-3272.60;90.10
42683;DHT22;28293;50.930;3.464;2022-12-17T01:10:38;-3272.50;90.00
42683;DHT22;28293;50.930;3.464;2022-12-17T01:13:30;-3272.50;90.00
42683;DHT22;28293;50.930;3.464;2022-12-17T01:16:15;-3272.50;90.00
42683;DHT22;28293;50.930;3.464;2022-12-17T01:18:59;-3272.50;90.00
42683;DHT22;28293;50.930;3.464;2022-12-17T01:21:44;-3272.40;90.00
42683;DHT22;28293;50.930;3.464;2022-12-17T01:24:31;-3272.40;90.10
42683;DHT22;28293;50.930;3.464;2022-12-17T01:27:15;-3272.50;90.10
42683;DHT22;28293;50.930;3.464;2022-12-17T01:29:59;-3272.40;90.10
42683;DHT22;28293;50.930;3.464;2022-12-17T01:32:43;-3272.40;90.10
42683;DHT22;28293;50.930;3.464;2022-12-17T01:35:28;-3272.40;90.10
42683;DHT22;28293;50.930;3.464;2022-12-17T01:38:14;-3272.40;90.00
42683;DHT22;28293;50.930;3.464;2022-12-17T01:41:01;-3272.40;90.00
42683;DHT22;28293;50.930;3.464;2022-12-17T01:43:46;-3272.40;89.90
42683;DHT22;28293;50.930;3.464;2022-12-17T01:46:41;-3272.40;89.90
42683;DHT22;28293;50.930;3.464;2022-12-17T01:49:28;-3272.30;89.90
42683;DHT22;28293;50.930;3.464;2022-12-17T01:52:15;-3272.30;89.80
42683;DHT22;28293;50.930;3.464;2022-12-17T01:55:06;-3272.20;89.80
42683;DHT22;28293;50.930;3.464;2022-12-17T01:57:53;-3272.20;89.90
42683;DHT22;28293;50.930;3.464;2022-12-17T02:00:41;-3272.20;90.00
42683;DHT22;28293;50.930;3.464;2022-12-17T02:03:25;-3272.20;90.00
42683;DHT22;28293;50.930;3.464;2022-12-17T02:06:17;-3272.20;90.10
42683;DHT22;28293;50.930;3.464;2022-12-17T02:12:47;-3272.30;90.20
42683;DHT22;28293;50.930;3.464;2022-12-17T02:15:55;-3272.30;90.20
42683;DHT22;28293;50.930;3.464;2022-12-17T02:18:50;-3272.30;90.20
42683;DHT22;28293;50.930;3.464;2022-12-17T02:21:40;-3272.30;90.20
42683;DHT22;28293;50.930;3.464;2022-12-17T02:24:56;-3272.30;90.20
42683;DHT22;28293;50.930;3.464;2022-12-17T02:27:45;-3272.30;90.20
42683;DHT22;28293;50.930;3.464;2022-12-17T02:30:30;-3272.30;90.20
42683;DHT22;28293;50.930;3.464;2022-12-17T02:33:15;-3272.30;90.20
42683;DHT22;28293;50.930;3.464;2022-12-17T02:36:04;-3272.20;90.10
42683;DHT22;28293;50.930;3.464;2022-12-17T02:38:49;-3272.20;90.20
42683;DHT22;28293;50.930;3.464;2022-12-17T02:41:51;-3272.20;90.20
42683;DHT22;28293;50.930;3.464;2022-12-17T02:44:37;-3272.20;90.20
42683;DHT22;28293;50.930;3.464;2022-12-17T02:47:25;-3272.20;90.20
42683;DHT22;28293;50.930;3.464;2022-12-17T02:50:10;-3272.20;90.20
42683;DHT22;28293;50.930;3.464;2022-12-17T02:52:57;-3272.20;90.20
42683;DHT22;28293;50.930;3.464;2022-12-17T02:55:46;-3272.20;90.30
42683;DHT22;28293;50.930;3.464;2022-12-17T02:58:31;-3272.20;90.30
42683;DHT22;28293;50.930;3.464;2022-12-17T03:01:15;-3272.10;90.20
42683;DHT22;28293;50.930;3.464;2022-12-17T03:03:59;-3272.20;90.30
42683;DHT22;28293;50.930;3.464;2022-12-17T03:06:43;-3272.20;90.30
42683;DHT22;28293;50.930;3.464;2022-12-17T03:09:27;-3272.20;90.30
42683;DHT22;28293;50.930;3.464;2022-12-17T03:12:12;-3272.30;90.30
42683;DHT22;28293;50.930;3.464;2022-12-17T03:14:56;-3272.30;90.30
42683;DHT22;28293;50.930;3.464;2022-12-17T03:17:40;-3272.30;90.30
42683;DHT22;28293;50.930;3.464;2022-12-17T03:20:27;-3272.40;90.40
42683;DHT22;28293;50.930;3.464;2022-12-17T03:23:12;-3272.40;90.50
42683;DHT22;28293;50.930;3.464;2022-12-17T03:25:58;-3272.40;90.50
42683;DHT22;28293;50.930;3.464;2022-12-17T03:28:45;-3272.40;90.60
42683;DHT22;28293;50.930;3.464;2022-12-17T03:31:30;-3272.40;90.50
42683;DHT22;28293;50.930;3.464;2022-12-17T03:34:16;-3272.40;90.50
42683;DHT22;28293;50.930;3.464;2022-12-17T03:37:03;-3272.40;90.60
42683;DHT22;28293;50.930;3.464;2022-12-17T03:39:50;-3272.40;90.70
42683;DHT22;28293;50.930;3.464;2022-12-17T03:42:37;-3272.40;90.80
42683;DHT22;28293;50.930;3.464;2022-12-17T03:45:21;-3272.50;90.90
42683;DHT22;28293;50.930;3.464;2022-12-17T03:48:09;-3272.50;90.90
42683;DHT22;28293;50.930;3.464;2022-12-17T03:50:56;-3272.50;90.90
42683;DHT22;28293;50.930;3.464;2022-12-17T03:53:41;-3272.50;90.90
42683;DHT22;28293;50.930;3.464;2022-12-17T03:56:25;-3272.50;90.90
42683;DHT22;28293;50.930;3.464;2022-12-17T03:59:11;-3272.50;90.80
42683;DHT22;28293;50.930;3.464;2022-12-17T04:01:56;-3272.40;90.80
42683;DHT22;28293;50.930;3.464;2022-12-17T04:04:43;-3272.40;90.80
42683;DHT22;28293;50.930;3.464;2022-12-17T04:07:29;-3272.40;90.80
42683;DHT22;28293;50.930;3.464;2022-12-17T04:10:19;-3272.40;90.80
42683;DHT22;28293;50.930;3.464;2022-12-17T04:13:06;-3272.40;90.80
42683;DHT22;28293;50.930;3.464;2022-12-17T04:15:50;-3272.40;90.70
42683;DHT22;28293;50.930;3.464;2022-12-17T04:18:37;-3272.30;90.70
42683;DHT22;28293;50.930;3.464;2022-12-17T04:21:22;-3272.30;90.60
42683;DHT22;28293;50.930;3.464;2022-12-17T04:24:08;-3272.30;90.60
42683;DHT22;28293;50.930;3.464;2022-12-17T04:26:53;-3272.20;90.60
42683;DHT22;28293;50.930;3.464;2022-12-17T04:29:39;-3272.20;90.60
42683;DHT22;28293;50.930;3.464;2022-12-17T04:32:26;-3272.20;90.60
42683;DHT22;28293;50.930;3.464;2022-12-17T04:35:10;-3272.20;90.50
42683;DHT22;28293;50.930;3.464;2022-12-17T04:37:55;-3272.10;90.40
42683;DHT22;28293;50.930;3.464;2022-12-17T04:40:39;-3272.20;90.40
42683;DHT22;28293;50.930;3.464;2022-12-17T04:43:26;-3272.10;90.40
42683;DHT22;28293;50.930;3.464;2022-12-17T04:46:13;-3272.20;90.40
42683;DHT22;28293;50.930;3.464;2022-12-17T04:48:57;-3272.10;90.30
42683;DHT22;28293;50.930;3.464;2022-12-17T04:51:41;-3272.10;90.30
42683;DHT22;28293;50.930;3.464;2022-12-17T04:54:25;-3272.10;90.20
42683;DHT22;28293;50.930;3.464;2022-12-17T04:57:23;-3272.10;90.20
42683;DHT22;28293;50.930;3.464;2022-12-17T05:00:17;-3272.00;90.20
42683;DHT22;28293;50.930;3.464;2022-12-17T05:03:04;-3272.10;90.30
42683;DHT22;28293;50.930;3.464;2022-12-17T05:05:50;-3272.10;90.30
42683;DHT22;28293;50.930;3.464;2022-12-17T05:08:35;-3272.10;90.30
42683;DHT22;28293;50.930;3.464;2022-12-17T05:11:19;-3272.10;90.30
42683;DHT22;28293;50.930;3.464;2022-12-17T05:14:05;-3272.10;90.30
42683;DHT22;28293;50.930;3.464;2022-12-17T05:16:52;-3272.10;90.30
42683;DHT22;28293;50.930;3.464;2022-12-17T05:19:36;-3272.10;90.30
42683;DHT22;28293;50.930;3.464;2022-12-17T05:22:21;-3272.10;90.30
42683;DHT22;28293;50.930;3.464;2022-12-17T05:25:06;-3272.20;90.40
42683;DHT22;28293;50.930;3.464;2022-12-17T05:27:51;-3272.20;90.40
42683;DHT22;28293;50.930;3.464;2022-12-17T05:30:40;-3272.20;90.40
42683;DHT22;28293;50.930;3.464;2022-12-17T05:33:26;-3272.20;90.40
42683;DHT22;28293;50.930;3.464;2022-12-17T05:36:15;-3272.20;90.40
42683;DHT22;28293;50.930;3.464;2022-12-17T05:39:00;-3272.10;90.40
42683;DHT22;28293;50.930;3.464;2022-12-17T05:41:44;-3272.10;90.40
42683;DHT22;28293;50.930;3.464;2022-12-17T05:44:45;-3272.10;90.40
42683;DHT22;28293;50.930;3.464;2022-12-17T05:47:29;-3272.10;90.40
42683;DHT22;28293;50.930;3.464;2022-12-17T05:50:16;-3272.10;90.40
42683;DHT22;28293;50.930;3.464;2022-12-17T05:53:02;-3272.10;90.40
42683;DHT22;28293;50.930;3.464;2022-12-17T05:55:51;-3272.00;90.40
42683;DHT22;28293;50.930;3.464;2022-12-17T05:58:35;-3272.00;90.40
42683;DHT22;28293;50.930;3.464;2022-12-17T06:01:19;-3272.00;90.40
42683;DHT22;28293;50.930;3.464;2022-12-17T06:04:03;-3272.00;90.50
42683;DHT22;28293;50.930;3.464;2022-12-17T06:06:48;-3272.00;90.50
42683;DHT22;28293;50.930;3.464;2022-12-17T06:09:32;-3271.90;90.50
42683;DHT22;28293;50.930;3.464;2022-12-17T06:12:17;-3271.90;90.50
42683;DHT22;28293;50.930;3.464;2022-12-17T06:15:01;-3271.90;90.50
42683;DHT22;28293;50.930;3.464;2022-12-17T06:17:54;-3271.80;90.50
42683;DHT22;28293;50.930;3.464;2022-12-17T06:20:39;-3271.90;90.50
42683;DHT22;28293;50.930;3.464;2022-12-17T06:23:23;-3271.80;90.40
42683;DHT22;28293;50.930;3.464;2022-12-17T06:26:07;-3271.80;90.40
42683;DHT22;28293;50.930;3.464;2022-12-17T06:28:54;-3271.80;90.30
42683;DHT22;28293;50.930;3.464;2022-12-17T06:31:40;-3271.80;90.30
42683;DHT22;28293;50.930;3.464;2022-12-17T06:34:27;-3271.80;90.40
42683;DHT22;28293;50.930;3.464;2022-12-17T06:37:11;-3271.80;90.40
42683;DHT22;28293;50.930;3.464;2022-12-17T06:39:58;-3271.90;90.60
42683;DHT22;28293;50.930;3.464;2022-12-17T06:43:04;-3272.00;90.60
42683;DHT22;28293;50.930;3.464;2022-12-17T06:45:50;-3272.00;90.70
42683;DHT22;28293;50.930;3.464;2022-12-17T06:48:37;-3272.20;90.80
42683;DHT22;28293;50.930;3.464;2022-12-17T06:51:38;-3272.10;90.70
42683;DHT22;28293;50.930;3.464;2022-12-17T06:54:24;-3272.10;90.80
42683;DHT22;28293;50.930;3.464;2022-12-17T06:57:08;-3272.20;90.80
42683;DHT22;28293;50.930;3.464;2022-12-17T06:59:53;-3272.20;90.80
42683;DHT22;28293;50.930;3.464;2022-12-17T07:02:37;-3272.20;90.90
42683;DHT22;28293;50.930;3.464;2022-12-17T07:05:23;-3272.30;91.00
42683;DHT22;28293;50.930;3.464;2022-12-17T07:08:08;-3272.30;91.00
42683;DHT22;28293;50.930;3.464;2022-12-17T07:10:54;-3272.20;91.00
42683;DHT22;28293;50.930;3.464;2022-12-17T07:13:40;-3272.20;91.00
42683;DHT22;28293;50.930;3.464;2022-12-17T07:16:24;-3272.20;91.00
42683;DHT22;28293;50.930;3.464;2022-12-17T07:19:10;-3272.20;91.00
42683;DHT22;28293;50.930;3.464;2022-12-17T07:21:57;-3272.20;91.00
42683;DHT22;28293;50.930;3.464;2022-12-17T07:24:41;-3272.20;91.00
42683;DHT22;28293;50.930;3.464;2022-12-17T07:27:26;-3272.20;91.10
42683;DHT22;28293;50.930;3.464;2022-12-17T07:30:13;-3272.20;91.10
42683;DHT22;28293;50.930;3.464;2022-12-17T07:33:03;-3272.20;91.00
42683;DHT22;28293;50.930;3.464;2022-12-17T07:35:47;-3272.20;91.00
42683;DHT22;28293;50.930;3.464;2022-12-17T07:38:32;-3272.20;91.10
42683;DHT22;28293;50.930;3.464;2022-12-17T07:41:16;-3272.20;91.00
42683;DHT22;28293;50.930;3.464;2022-12-17T07:44:03;-3272.20;90.90
42683;DHT22;28293;50.930;3.464;2022-12-17T07:46:50;-3272.20;90.90
42683;DHT22;28293;50.930;3.464;2022-12-17T07:49:34;-3272.20;91.00
42683;DHT22;28293;50.930;3.464;2022-12-17T07:52:19;-3272.20;90.90
42683;DHT22;28293;50.930;3.464;2022-12-17T07:55:05;-3272.30;91.00
42683;DHT22;28293;50.930;3.464;2022-12-17T07:58:10;-3272.30;90.90
42683;DHT22;28293;50.930;3.464;2022-12-17T08:00:57;-3272.30;90.80
42683;DHT22;28293;50.930;3.464;2022-12-17T08:03:42;-3272.20;90.80
42683;DHT22;28293;50.930;3.464;2022-12-17T08:06:27;-3272.30;90.80
42683;DHT22;28293;50.930;3.464;2022-12-17T08:09:11;-3272.30;90.90
42683;DHT22;28293;50.930;3.464;2022-12-17T08:11:57;-3272.40;90.90
42683;DHT22;28293;50.930;3.464;2022-12-17T08:14:42;-3272.40;90.80
42683;DHT22;28293;50.930;3.464;2022-12-17T08:17:33;-3272.40;90.80
42683;DHT22;28293;50.930;3.464;2022-12-17T08:20:22;-3272.40;90.70
42683;DHT22;28293;50.930;3.464;2022-12-17T08:23:09;-3272.50;90.70
42683;DHT22;28293;50.930;3.464;2022-12-17T08:25:53;-3272.50;90.60
42683;DHT22;28293;50.930;3.464;2022-12-17T08:28:42;-3272.60;90.60
42683;DHT22;28293;50.930;3.464;2022-12-17T08:31:26;-3272.60;90.50
42683;DHT22;28293;50.930;3.464;2022-12-17T08:34:11;-3272.60;90.50
42683;DHT22;28293;50.930;3.464;2022-12-17T08:36:55;-3272.70;90.50
42683;DHT22;28293;50.930;3.464;2022-12-17T08:39:40;-3272.80;90.50
42683;DHT22;28293;50.930;3.464;2022-12-17T08:42:26;-3272.90;90.50
42683;DHT22;28293;50.930;3.464;2022-12-17T08:45:14;-3273.00;90.40
42683;DHT22;28293;50.930;3.464;2022-12-17T08:48:03;-3273.10;90.30
42683;DHT22;28293;50.930;3.464;2022-12-17T08:50:47;-3273.20;90.30
42683;DHT22;28293;50.930;3.464;2022-12-17T08:53:31;-3273.40;90.10
42683;DHT22;28293;50.930;3.464;2022-12-17T08:56:16;-3273.50;89.90
42683;DHT22;28293;50.930;3.464;2022-12-17T08:59:00;-3273.50;89.40
42683;DHT22;28293;50.930;3.464;2022-12-17T09:01:44;-3273.60;89.10
42683;DHT22;28293;50.930;3.464;2022-12-17T09:05:23;-3273.60;88.90
42683;DHT22;28293;50.930;3.464;2022-12-17T09:08:08;-3273.70;88.70
42683;DHT22;28293;50.930;3.464;2022-12-17T09:10:59;-3273.80;88.50
42683;DHT22;28293;50.930;3.464;2022-12-17T09:13:45;-3274.00;88.30
42683;DHT22;28293;50.930;3.464;2022-12-17T09:16:30;-3274.00;88.20
42683;DHT22;28293;50.930;3.464;2022-12-17T09:19:14;-3274.20;88.10
42683;DHT22;28293;50.930;3.464;2022-12-17T09:22:00;-3274.30;87.80
42683;DHT22;28293;50.930;3.464;2022-12-17T09:24:47;-3274.40;87.50
42683;DHT22;28293;50.930;3.464;2022-12-17T09:27:31;-3274.50;87.10
42683;DHT22;28293;50.930;3.464;2022-12-17T09:30:16;-3274.60;86.90
42683;DHT22;28293;50.930;3.464;2022-12-17T09:33:00;-3274.70;86.50
42683;DHT22;28293;50.930;3.464;2022-12-17T09:38:39;-3274.90;86.10
42683;DHT22;28293;50.930;3.464;2022-12-17T09:41:28;-3275.00;86.00
42683;DHT22;28293;50.930;3.464;2022-12-17T09:44:37;-3275.10;85.70
42683;DHT22;28293;50.930;3.464;2022-12-17T09:50:16;-3275.40;85.30
42683;DHT22;28293;50.930;3.464;2022-12-17T09:53:09;-3275.50;85.10
42683;DHT22;28293;50.930;3.464;2022-12-17T09:55:59;-3275.60;84.70
42683;DHT22;28293;50.930;3.464;2022-12-17T09:58:46;-3275.80;84.50
42683;DHT22;28293;50.930;3.464;2022-12-17T10:01:34;-3275.90;84.00
42683;DHT22;28293;50.930;3.464;2022-12-17T10:04:45;-3276.00;84.10
42683;DHT22;28293;50.930;3.464;2022-12-17T10:07:34;-3276.00;83.70
42683;DHT22;28293;50.930;3.464;2022-12-17T10:13:22;-3276.10;83.60
42683;DHT22;28293;50.930;3.464;2022-12-17T10:22:15;-3276.20;83.50
42683;DHT22;28293;50.930;3.464;2022-12-17T10:25:19;-3276.30;83.90
42683;DHT22;28293;50.930;3.464;2022-12-17T10:28:09;-3276.40;83.60
42683;DHT22;28293;50.930;3.464;2022-12-17T10:30:57;-3276.40;83.50
42683;DHT22;28293;50.930;3.464;2022-12-17T10:33:41;-3276.50;83.70
42683;DHT22;28293;50.930;3.464;2022-12-17T10:36:29;-3276.50;83.70
42683;DHT22;28293;50.930;3.464;2022-12-17T10:39:16;-3276.50;83.70
42683;DHT22;28293;50.930;3.464;2022-12-17T10:42:02;-3276.60;83.30
42683;DHT22;28293;50.930;3.464;2022-12-17T10:44:48;-3276.60;83.30
42683;DHT22;28293;50.930;3.464;2022-12-17T10:47:42;-3276.60;83.30
42683;DHT22;28293;50.930;3.464;2022-12-17T10:50:27;-3276.50;83.50
42683;DHT22;28293;50.930;3.464;2022-12-17T10:53:22;-3276.60;83.80
42683;DHT22;28293;50.930;3.464;2022-12-17T10:56:19;-3276.60;84.10
42683;DHT22;28293;50.930;3.464;2022-12-17T10:59:11;-3276.70;83.80
42683;DHT22;28293;50.930;3.464;2022-12-17T11:01:58;-3276.70;84.20
42683;DHT22;28293;50.930;3.464;2022-12-17T11:04:51;-3276.70;84.50
42683;DHT22;28293;50.930;3.464;2022-12-17T11:07:42;-3276.70;84.60
42683;DHT22;28293;50.930;3.464;2022-12-17T11:10:33;0.00;84.40
42683;DHT22;28293;50.930;3.464;2022-12-17T11:13:50;0.00;84.40
42683;DHT22;28293;50.930;3.464;2022-12-17T11:16:40;0.00;84.20
42683;DHT22;28293;50.930;3.464;2022-12-17T11:19:47;0.00;84.40
42683;DHT22;28293;50.930;3.464;2022-12-17T11:22:44;0.20;84.70
42683;DHT22;28293;50.930;3.464;2022-12-17T11:25:54;0.30;84.40
42683;DHT22;28293;50.930;3.464;2022-12-17T11:28:39;0.40;84.10
42683;DHT22;28293;50.930;3.464;2022-12-17T11:31:27;0.40;84.00
42683;DHT22;28293;50.930;3.464;2022-12-17T11:37:29;0.60;83.80
42683;DHT22;28293;50.930;3.464;2022-12-17T11:51:30;0.90;82.80
42683;DHT22;28293;50.930;3.464;2022-12-17T11:54:34;1.10;82.90
42683;DHT22;28293;50.930;3.464;2022-12-17T11:57:26;1.00;82.00
42683;DHT22;28293;50.930;3.464;2022-12-17T12:12:21;1.20;82.00
42683;DHT22;28293;50.930;3.464;2022-12-17T12:15:32;1.10;82.00
42683;DHT22;28293;50.930;3.464;2022-12-17T12:21:41;1.00;82.20
42683;DHT22;28293;50.930;3.464;2022-12-17T12:24:59;1.10;82.50
42683;DHT22;28293;50.930;3.464;2022-12-17T12:28:02;1.10;82.50
42683;DHT22;28293;50.930;3.464;2022-12-17T12:31:12;1.10;82.20
42683;DHT22;28293;50.930;3.464;2022-12-17T12:34:02;1.10;82.20
42683;DHT22;28293;50.930;3.464;2022-12-17T12:36:48;1.10;82.20
42683;DHT22;28293;50.930;3.464;2022-12-17T12:39:38;1.20;82.20
42683;DHT22;28293;50.930;3.464;2022-12-17T12:42:41;1.10;82.30
42683;DHT22;28293;50.930;3.464;2022-12-17T12:48:55;1.10;82.00
42683;DHT22;28293;50.930;3.464;2022-12-17T12:51:42;1.00;82.00
42683;DHT22;28293;50.930;3.464;2022-12-17T12:54:47;1.10;81.80
42683;DHT22;28293;50.930;3.464;2022-12-17T12:57:59;0.90;81.70
42683;DHT22;28293;50.930;3.464;2022-12-17T13:03:34;0.90;82.20
42683;DHT22;28293;50.930;3.464;2022-12-17T13:06:53;0.90;82.30
42683;DHT22;28293;50.930;3.464;2022-12-17T13:22:30;0.70;82.70
42683;DHT22;28293;50.930;3.464;2022-12-17T13:25:18;0.60;82.60
42683;DHT22;28293;50.930;3.464;2022-12-17T13:27:44;0.60;82.80
42683;DHT22;28293;50.930;3.464;2022-12-17T13:41:09;0.40;83.20
42683;DHT22;28293;50.930;3.464;2022-12-17T13:43:44;0.40;83.30
42683;DHT22;28293;50.930;3.464;2022-12-17T13:46:26;0.30;83.40
42683;DHT22;28293;50.930;3.464;2022-12-17T13:49:05;0.40;83.60
42683;DHT22;28293;50.930;3.464;2022-12-17T13:51:33;0.20;83.70
42683;DHT22;28293;50.930;3.464;2022-12-17T13:54:02;0.10;83.70
42683;DHT22;28293;50.930;3.464;2022-12-17T13:56:34;0.00;83.80
42683;DHT22;28293;50.930;3.464;2022-12-17T13:59:02;0.00;83.90
42683;DHT22;28293;50.930;3.464;2022-12-17T14:01:31;-3276.70;84.00
42683;DHT22;28293;50.930;3.464;2022-12-17T14:04:01;-3276.70;84.20
42683;DHT22;28293;50.930;3.464;2022-12-17T14:06:33;-3276.60;84.40
42683;DHT22;28293;50.930;3.464;2022-12-17T14:09:00;-3276.50;84.40
42683;DHT22;28293;50.930;3.464;2022-12-17T14:11:27;-3276.40;84.60
42683;DHT22;28293;50.930;3.464;2022-12-17T14:16:50;-3276.30;85.10
42683;DHT22;28293;50.930;3.464;2022-12-17T14:19:15;-3276.30;85.10
42683;DHT22;28293;50.930;3.464;2022-12-17T14:21:42;-3276.20;85.20
42683;DHT22;28293;50.930;3.464;2022-12-17T14:24:12;-3276.20;85.20
42683;DHT22;28293;50.930;3.464;2022-12-17T14:26:51;-3276.10;85.20
42683;DHT22;28293;50.930;3.464;2022-12-17T14:29:23;-3276.10;85.20
42683;DHT22;28293;50.930;3.464;2022-12-17T14:31:54;-3276.00;85.30
42683;DHT22;28293;50.930;3.464;2022-12-17T14:34:23;-3276.00;85.40
42683;DHT22;28293;50.930;3.464;2022-12-17T14:36:55;-3275.90;85.60
42683;DHT22;28293;50.930;3.464;2022-12-17T14:39:28;-3275.80;85.80
42683;DHT22;28293;50.930;3.464;2022-12-17T14:42:11;-3275.80;85.90
42683;DHT22;28293;50.930;3.464;2022-12-17T14:44:58;-3275.80;85.90
42683;DHT22;28293;50.930;3.464;2022-12-17T14:47:27;-3275.70;86.00
42683;DHT22;28293;50.930;3.464;2022-12-17T14:50:05;-3275.70;86.20
42683;DHT22;28293;50.930;3.464;2022-12-17T14:52:39;-3275.60;86.10
42683;DHT22;28293;50.930;3.464;2022-12-17T14:57:50;-3275.50;86.30
42683;DHT22;28293;50.930;3.464;2022-12-17T15:00:17;-3275.50;86.40
42683;DHT22;28293;50.930;3.464;2022-12-17T15:02:44;-3275.40;86.70
42683;DHT22;28293;50.930;3.464;2022-12-17T15:05:14;-3275.30;86.90
42683;DHT22;28293;50.930;3.464;2022-12-17T15:07:41;-3275.20;87.10
42683;DHT22;28293;50.930;3.464;2022-12-17T15:10:12;-3275.20;87.30
42683;DHT22;28293;50.930;3.464;2022-12-17T15:12:42;-3275.20;87.50
42683;DHT22;28293;50.930;3.464;2022-12-17T15:15:16;-3275.10;87.60
42683;DHT22;28293;50.930;3.464;2022-12-17T15:17:49;-3275.00;87.80
42683;DHT22;28293;50.930;3.464;2022-12-17T15:20:20;-3275.00;88.00
42683;DHT22;28293;50.930;3.464;2022-12-17T15:22:46;-3275.00;88.30
42683;DHT22;28293;50.930;3.464;2022-12-17T15:25:14;-3275.00;88.40
42683;DHT22;28293;50.930;3.464;2022-12-17T15:27:49;-3275.00;88.50
42683;DHT22;28293;50.930;3.464;2022-12-17T15:30:16;-3275.00;88.60
42683;DHT22;28293;50.930;3.464;2022-12-17T15:32:43;-3275.00;88.70
42683;DHT22;28293;50.930;3.464;2022-12-17T15:38:24;-3275.00;88.70
42683;DHT22;28293;50.930;3.464;2022-12-17T15:40:52;-3275.00;88.80
42683;DHT22;28293;50.930;3.464;2022-12-17T15:43:33;-3275.00;88.90
42683;DHT22;28293;50.930;3.464;2022-12-17T15:46:09;-3275.00;88.90
42683;DHT22;28293;50.930;3.464;2022-12-17T15:48:38;-3275.00;89.00
42683;DHT22;28293;50.930;3.464;2022-12-17T15:51:10;-3275.10;89.00
42683;DHT22;28293;50.930;3.464;2022-12-17T15:53:48;-3275.00;89.00
42683;DHT22;28293;50.930;3.464;2022-12-17T15:56:19;-3275.00;89.10
42683;DHT22;28293;50.930;3.464;2022-12-17T15:59:07;-3275.00;89.20
42683;DHT22;28293;50.930;3.464;2022-12-17T16:01:33;-3275.00;89.40
42683;DHT22;28293;50.930;3.464;2022-12-17T16:04:15;-3275.00;89.60
42683;DHT22;28293;50.930;3.464;2022-12-17T16:06:41;-3274.90;89.60
42683;DHT22;28293;50.930;3.464;2022-12-17T16:09:07;-3274.90;89.70
42683;DHT22;28293;50.930;3.464;2022-12-17T16:11:56;-3274.90;89.80
42683;DHT22;28293;50.930;3.464;2022-12-17T16:14:23;-3274.90;90.00
42683;DHT22;28293;50.930;3.464;2022-12-17T16:16:49;-3274.90;89.90
42683;DHT22;28293;50.930;3.464;2022-12-17T16:19:17;-3274.90;89.90
42683;DHT22;28293;50.930;3.464;2022-12-17T16:21:43;-3274.80;90.00
42683;DHT22;28293;50.930;3.464;2022-12-17T16:24:09;-3274.80;90.10
42683;DHT22;28293;50.930;3.464;2022-12-17T16:26:36;-3274.90;90.20
42683;DHT22;28293;50.930;3.464;2022-12-17T16:29:03;-3274.90;90.20
42683;DHT22;28293;50.930;3.464;2022-12-17T16:31:28;-3274.90;90.20
42683;DHT22;28293;50.930;3.464;2022-12-17T16:33:54;-3274.90;90.20
42683;DHT22;28293;50.930;3.464;2022-12-17T16:36:20;-3275.00;90.20
42683;DHT22;28293;50.930;3.464;2022-12-17T16:38:53;-3274.90;90.10
42683;DHT22;28293;50.930;3.464;2022-12-17T16:41:20;-3275.00;90.20
42683;DHT22;28293;50.930;3.464;2022-12-17T16:43:57;-3274.90;90.10
42683;DHT22;28293;50.930;3.464;2022-12-17T16:46:43;-3275.00;90.10
42683;DHT22;28293;50.930;3.464;2022-12-17T16:49:18;-3274.90;90.10
42683;DHT22;28293;50.930;3.464;2022-12-17T16:51:54;-3274.90;90.20
42683;DHT22;28293;50.930;3.464;2022-12-17T16:54:22;-3274.90;90.20
42683;DHT22;28293;50.930;3.464;2022-12-17T16:56:54;-3274.90;90.30
42683;DHT22;28293;50.930;3.464;2022-12-17T16:59:20;-3274.90;90.30
42683;DHT22;28293;50.930;3.464;2022-12-17T17:01:48;-3274.90;90.30
42683;DHT22;28293;50.930;3.464;2022-12-17T17:04:19;-3275.00;90.30
42683;DHT22;28293;50.930;3.464;2022-12-17T17:06:56;-3274.90;90.30
42683;DHT22;28293;50.930;3.464;2022-12-17T17:09:24;-3275.00;90.30
42683;DHT22;28293;50.930;3.464;2022-12-17T17:12:01;-3275.00;90.30
42683;DHT22;28293;50.930;3.464;2022-12-17T17:14:40;-3275.00;90.40
42683;DHT22;28293;50.930;3.464;2022-12-17T17:17:10;-3275.00;90.40
42683;DHT22;28293;50.930;3.464;2022-12-17T17:19:47;-3275.00;90.40
42683;DHT22;28293;50.930;3.464;2022-12-17T17:22:20;-3275.00;90.40
42683;DHT22;28293;50.930;3.464;2022-12-17T17:25:05;-3275.00;90.40
42683;DHT22;28293;50.930;3.464;2022-12-17T17:28:04;-3275.00;90.30
42683;DHT22;28293;50.930;3.464;2022-12-17T17:30:39;-3274.90;90.30
42683;DHT22;28293;50.930;3.464;2022-12-17T17:33:07;-3275.00;90.30
42683;DHT22;28293;50.930;3.464;2022-12-17T17:35:33;-3274.90;90.40
42683;DHT22;28293;50.930;3.464;2022-12-17T17:37:59;-3275.00;90.40
42683;DHT22;28293;50.930;3.464;2022-12-17T17:40:25;-3275.00;90.40
42683;DHT22;28293;50.930;3.464;2022-12-17T17:42:50;-3275.00;90.40
42683;DHT22;28293;50.930;3.464;2022-12-17T17:45:16;-3275.00;90.40
42683;DHT22;28293;50.930;3.464;2022-12-17T17:47:42;-3275.00;90.40
42683;DHT22;28293;50.930;3.464;2022-12-17T17:50:08;-3275.00;90.30
42683;DHT22;28293;50.930;3.464;2022-12-17T17:52:34;-3275.00;90.40
42683;DHT22;28293;50.930;3.464;2022-12-17T17:54:59;-3275.00;90.30
42683;DHT22;28293;50.930;3.464;2022-12-17T17:57:25;-3275.00;90.40
42683;DHT22;28293;50.930;3.464;2022-12-17T17:59:51;-3275.00;90.40